Terminal Aerodrome Forecast
Issued by NWS

Home | Current Version | Previous Version | Text Only | Print | Product List | Glossary On
Versions: 1 2 3 4 5 6 7 8 9 10 11 12 13
004
FTUS42 TJSJ 250535
TAFJBQ
TAF
TJBQ 250535Z 2506/2606 VRB04KT P6SM VCSH SCT024 SCT040
     FM251400 08013KT P6SM SCT025
     FM252200 VRB05KT P6SM FEW030
      AMD NOT SKED TIL 251100=

USA.gov is the U.S. government's official web portal to all federal, state and local government web resources and services.